TimePST,TemperatureF,Dew PointF,Humidity,Sea Level PressureIn,VisibilityMPH,Wind Direction,Wind SpeedMPH,Gust SpeedMPH,PrecipitationIn,Events,Conditions,WindDirDegrees,DateUTC
12:08 AM,57.2,37.4,48,29.87,10.0,WSW,27.6,35.7,N/A,,Mostly Cloudy,250,2013-02-08 08:08:00
12:30 AM,57.2,37.4,48,29.86,10.0,West,32.2,44.9,N/A,,Mostly Cloudy,260,2013-02-08 08:30:00
12:56 AM,57.0,37.0,47,29.91,10.0,West,34.5,44.9,N/A,,Overcast,260,2013-02-08 08:56:00
1:56 AM,57.0,35.1,44,29.93,10.0,WSW,43.7,51.8,N/A,,Overcast,250,2013-02-08 09:56:00
2:31 AM,57.2,35.6,44,29.86,10.0,WSW,39.1,55.2,N/A,,Scattered Clouds,250,2013-02-08 10:31:00
2:56 AM,55.9,36.0,47,29.93,10.0,West,36.8,49.5,N/A,,Clear,260,2013-02-08 10:56:00
3:56 AM,55.9,34.0,44,29.96,10.0,SW,20.7,29.9,N/A,,Clear,230,2013-02-08 11:56:00
4:56 AM,55.9,34.0,44,29.96,10.0,SSE,15.0,19.6,N/A,,Scattered Clouds,160,2013-02-08 12:56:00
5:56 AM,54.0,34.0,47,29.96,10.0,South,12.7,-,N/A,,Clear,180,2013-02-08 13:56:00
6:56 AM,55.9,33.1,42,29.97,10.0,Variable,3.5,-,N/A,,Partly Cloudy,0,2013-02-08 14:56:00
7:56 AM,57.0,33.1,40,29.99,10.0,North,6.9,-,N/A,,Partly Cloudy,10,2013-02-08 15:56:00
8:56 AM,59.0,30.0,33,30.00,10.0,West,17.3,25.3,N/A,,Partly Cloudy,270,2013-02-08 16:56:00
9:34 AM,60.8,33.8,36,29.96,10.0,West,26.5,35.7,N/A,,Squalls,270,2013-02-08 17:34:00
9:56 AM,57.9,32.0,37,30.01,10.0,WSW,17.3,-,N/A,,Partly Cloudy,250,2013-02-08 17:56:00
10:56 AM,63.0,30.0,29,29.98,10.0,West,19.6,28.8,N/A,,Partly Cloudy,260,2013-02-08 18:56:00
11:56 AM,64.0,30.9,29,29.96,10.0,WSW,17.3,24.2,N/A,,Partly Cloudy,250,2013-02-08 19:56:00
12:56 PM,64.0,30.9,29,29.94,10.0,WSW,23.0,28.8,N/A,,Partly Cloudy,250,2013-02-08 20:56:00
1:56 PM,63.0,32.0,31,29.92,10.0,WSW,28.8,38.0,N/A,,Mostly Cloudy,250,2013-02-08 21:56:00
2:56 PM,60.1,34.0,38,29.93,10.0,West,33.4,38.0,N/A,,Scattered Clouds,270,2013-02-08 22:56:00
3:56 PM,55.9,37.0,49,29.94,10.0,West,21.9,31.1,N/A,,Scattered Clouds,270,2013-02-08 23:56:00
4:56 PM,55.0,35.1,47,29.92,10.0,SW,18.4,-,N/A,,Scattered Clouds,230,2013-02-09 00:56:00
5:56 PM,54.0,34.0,47,29.92,10.0,WSW,26.5,31.1,N/A,,Scattered Clouds,250,2013-02-09 01:56:00
6:09 PM,-9999,-9999,N/A,-9999,-9999.0,North,-9999.0,-,N/A,,Unknown,0,2013-02-09 02:09:00
6:56 PM,52.0,34.0,50,29.93,10.0,WSW,15.0,-,N/A,,Partly Cloudy,250,2013-02-09 02:56:00
7:56 PM,51.1,34.0,52,29.91,10.0,WSW,20.7,-,N/A,,Clear,250,2013-02-09 03:56:00
8:56 PM,50.0,34.0,54,29.93,10.0,West,12.7,-,N/A,,Clear,260,2013-02-09 04:56:00
9:56 PM,48.0,34.0,58,29.94,10.0,West,6.9,-,N/A,,Clear,280,2013-02-09 05:56:00
10:55 PM,-9999,-9999,N/A,-9999,-9999.0,North,-9999.0,-,N/A,,Unknown,0,2013-02-09 06:55:00
10:56 PM,46.0,34.0,63,29.93,10.0,SSW,6.9,-,N/A,,Clear,200,2013-02-09 06:56:00
11:56 PM,46.9,33.1,59,29.92,10.0,SW,9.2,-,N/A,,Clear,230,2013-02-09 07:56:00